Savannakhet Airport
VLSK : now visible

Airfield :











YOU CAN JOIN US ON...

 
LOGIN :

Register | Disclaimer

   EN    FR    IT 

 









Legend :    VFR   Marginal VFR   IFR   Intensive IFR   Very Intensive IFR
Visi :
Ceiling :
>= 8 km
>= 3000ft
5 to 8 km
1000 to 3000 ft
1500m to 5 km
500 to 1000 ft
800 to 1500m
200 to 500 ft
< 800m
< 200 ft
Symbols :   Thunderstorms  Fog  Heavy snow  Heavy precipitations  Wind > 20 kt






- Airport Elevation : 509 ft
- IATA code : ZVK


VLSK - Savannakhet

CURRENT METAR :
  • 260200Z 06002KT 6000 FEW100 26/22 Q1013 NOSIG

EXPIRED METARs :
  • 260100Z 06002KT 5000 BR FEW040 FEW100 24/22 Q1012 NOSIG
  • 260000Z 09002KT 2000 BR SCT040 BKN100 23/21 Q1012 NOSIG

TAF TAF VLSK
Valid from the 26 at 00:00 until the 27 at 00:00 UTC


252300Z 2600/2624 09004KT 9000 FEW020 SCT100



MET'MAP, your aeronautical weather chart ! - Copyright ORBIFLY December 2007 - Disclaimer

ORBIFLY MET'MAP TEAM :

Programming & Development : Alexandra Zaïnal
Concept & original design : Baudouin d'Aumeries
Assistance for programming : Marc-Olivier Méhu
Technical & hardware support : Manuel Goepfert

Contact : metmap@orbifly.com




SOURCES & CREDITS :

   NOAA       Earth
Advisory